sensor_id;sensor_type;location;lat;lon;timestamp;P1;durP1;ratioP1;P2;durP2;ratioP2
20861;SDS011;10591;52.532;13.348;2023-10-08T00:01:35;7.20;;;3.17;;
20861;SDS011;10591;52.532;13.348;2023-10-08T00:04:08;6.25;;;2.95;;
20861;SDS011;10591;52.532;13.348;2023-10-08T00:06:44;7.72;;;3.70;;
20861;SDS011;10591;52.532;13.348;2023-10-08T00:09:15;6.95;;;3.27;;
20861;SDS011;10591;52.532;13.348;2023-10-08T00:11:47;6.70;;;2.95;;
20861;SDS011;10591;52.532;13.348;2023-10-08T00:14:20;6.92;;;3.08;;
20861;SDS011;10591;52.532;13.348;2023-10-08T00:16:51;6.33;;;3.17;;
20861;SDS011;10591;52.532;13.348;2023-10-08T00:19:21;11.50;;;4.25;;
20861;SDS011;10591;52.532;13.348;2023-10-08T00:21:53;10.32;;;3.90;;
20861;SDS011;10591;52.532;13.348;2023-10-08T00:24:25;10.28;;;4.50;;
20861;SDS011;10591;52.532;13.348;2023-10-08T00:26:58;9.50;;;3.50;;
20861;SDS011;10591;52.532;13.348;2023-10-08T00:29:33;8.68;;;4.90;;
20861;SDS011;10591;52.532;13.348;2023-10-08T00:32:06;8.95;;;3.83;;
20861;SDS011;10591;52.532;13.348;2023-10-08T00:34:38;11.20;;;4.53;;
20861;SDS011;10591;52.532;13.348;2023-10-08T00:37:13;8.75;;;3.65;;
20861;SDS011;10591;52.532;13.348;2023-10-08T00:39:43;7.65;;;3.83;;
20861;SDS011;10591;52.532;13.348;2023-10-08T00:42:17;6.62;;;3.58;;
20861;SDS011;10591;52.532;13.348;2023-10-08T00:44:47;7.50;;;3.50;;
20861;SDS011;10591;52.532;13.348;2023-10-08T00:47:20;7.15;;;3.08;;
20861;SDS011;10591;52.532;13.348;2023-10-08T00:49:52;8.10;;;3.92;;
20861;SDS011;10591;52.532;13.348;2023-10-08T00:52:25;5.65;;;2.95;;
20861;SDS011;10591;52.532;13.348;2023-10-08T00:54:58;9.45;;;4.05;;
20861;SDS011;10591;52.532;13.348;2023-10-08T00:57:34;9.33;;;3.98;;
20861;SDS011;10591;52.532;13.348;2023-10-08T01:00:06;6.97;;;3.17;;
20861;SDS011;10591;52.532;13.348;2023-10-08T01:02:39;9.93;;;4.15;;
20861;SDS011;10591;52.532;13.348;2023-10-08T01:05:17;5.58;;;3.58;;
20861;SDS011;10591;52.532;13.348;2023-10-08T01:07:49;5.80;;;3.83;;
20861;SDS011;10591;52.532;13.348;2023-10-08T01:10:22;7.80;;;3.95;;
20861;SDS011;10591;52.532;13.348;2023-10-08T01:12:54;7.00;;;4.10;;
20861;SDS011;10591;52.532;13.348;2023-10-08T01:15:26;7.50;;;3.60;;
20861;SDS011;10591;52.532;13.348;2023-10-08T01:18:01;8.60;;;4.10;;
20861;SDS011;10591;52.532;13.348;2023-10-08T01:20:34;6.47;;;3.65;;
20861;SDS011;10591;52.532;13.348;2023-10-08T01:23:10;10.03;;;3.50;;
20861;SDS011;10591;52.532;13.348;2023-10-08T01:25:46;6.37;;;3.30;;
20861;SDS011;10591;52.532;13.348;2023-10-08T01:28:21;7.95;;;3.50;;
20861;SDS011;10591;52.532;13.348;2023-10-08T01:30:58;8.08;;;3.52;;
20861;SDS011;10591;52.532;13.348;2023-10-08T01:33:32;7.58;;;3.60;;
20861;SDS011;10591;52.532;13.348;2023-10-08T01:36:11;10.70;;;4.03;;
20861;SDS011;10591;52.532;13.348;2023-10-08T01:38:42;7.78;;;3.67;;
20861;SDS011;10591;52.532;13.348;2023-10-08T01:41:14;5.72;;;3.10;;
20861;SDS011;10591;52.532;13.348;2023-10-08T01:43:49;9.23;;;4.10;;
20861;SDS011;10591;52.532;13.348;2023-10-08T01:46:21;10.25;;;3.67;;
20861;SDS011;10591;52.532;13.348;2023-10-08T01:48:52;8.60;;;3.75;;
20861;SDS011;10591;52.532;13.348;2023-10-08T01:51:25;10.03;;;3.75;;
20861;SDS011;10591;52.532;13.348;2023-10-08T01:53:57;8.85;;;3.83;;
20861;SDS011;10591;52.532;13.348;2023-10-08T01:56:28;8.85;;;4.12;;
20861;SDS011;10591;52.532;13.348;2023-10-08T01:59:02;7.75;;;4.15;;
20861;SDS011;10591;52.532;13.348;2023-10-08T02:01:34;9.00;;;4.28;;
20861;SDS011;10591;52.532;13.348;2023-10-08T02:04:07;9.75;;;4.20;;
20861;SDS011;10591;52.532;13.348;2023-10-08T02:06:40;12.35;;;5.28;;
20861;SDS011;10591;52.532;13.348;2023-10-08T02:09:11;12.13;;;5.47;;
20861;SDS011;10591;52.532;13.348;2023-10-08T02:11:45;12.33;;;5.30;;
20861;SDS011;10591;52.532;13.348;2023-10-08T02:14:20;9.05;;;4.78;;
20861;SDS011;10591;52.532;13.348;2023-10-08T02:16:51;15.72;;;5.65;;
20861;SDS011;10591;52.532;13.348;2023-10-08T02:19:24;10.40;;;4.53;;
20861;SDS011;10591;52.532;13.348;2023-10-08T02:21:58;12.88;;;5.15;;
20861;SDS011;10591;52.532;13.348;2023-10-08T02:24:28;13.88;;;5.40;;
20861;SDS011;10591;52.532;13.348;2023-10-08T02:27:00;11.55;;;5.15;;
20861;SDS011;10591;52.532;13.348;2023-10-08T02:29:31;10.18;;;5.50;;
20861;SDS011;10591;52.532;13.348;2023-10-08T02:32:02;11.53;;;5.25;;
20861;SDS011;10591;52.532;13.348;2023-10-08T02:34:33;11.05;;;5.42;;
20861;SDS011;10591;52.532;13.348;2023-10-08T02:37:04;10.80;;;5.47;;
20861;SDS011;10591;52.532;13.348;2023-10-08T02:39:35;12.33;;;5.65;;
20861;SDS011;10591;52.532;13.348;2023-10-08T02:42:07;10.80;;;5.93;;
20861;SDS011;10591;52.532;13.348;2023-10-08T02:44:40;12.60;;;5.63;;
20861;SDS011;10591;52.532;13.348;2023-10-08T02:47:13;9.98;;;5.20;;
20861;SDS011;10591;52.532;13.348;2023-10-08T02:49:48;11.25;;;5.47;;
20861;SDS011;10591;52.532;13.348;2023-10-08T02:52:21;11.80;;;5.22;;
20861;SDS011;10591;52.532;13.348;2023-10-08T02:54:54;10.10;;;5.60;;
20861;SDS011;10591;52.532;13.348;2023-10-08T02:57:24;12.53;;;6.25;;
20861;SDS011;10591;52.532;13.348;2023-10-08T02:59:57;12.28;;;5.53;;
20861;SDS011;10591;52.532;13.348;2023-10-08T03:02:28;14.87;;;5.80;;
20861;SDS011;10591;52.532;13.348;2023-10-08T03:04:59;13.30;;;5.28;;
20861;SDS011;10591;52.532;13.348;2023-10-08T03:07:30;11.95;;;5.92;;
20861;SDS011;10591;52.532;13.348;2023-10-08T03:10:04;11.40;;;5.97;;
20861;SDS011;10591;52.532;13.348;2023-10-08T03:12:38;8.00;;;4.85;;
20861;SDS011;10591;52.532;13.348;2023-10-08T03:15:09;12.75;;;5.55;;
20861;SDS011;10591;52.532;13.348;2023-10-08T03:17:42;12.43;;;5.92;;
20861;SDS011;10591;52.532;13.348;2023-10-08T03:20:21;12.25;;;5.40;;
20861;SDS011;10591;52.532;13.348;2023-10-08T03:23:13;11.75;;;5.78;;
20861;SDS011;10591;52.532;13.348;2023-10-08T03:25:55;15.10;;;5.30;;
20861;SDS011;10591;52.532;13.348;2023-10-08T03:28:39;14.45;;;5.90;;
20861;SDS011;10591;52.532;13.348;2023-10-08T03:31:11;12.55;;;5.55;;
20861;SDS011;10591;52.532;13.348;2023-10-08T03:33:46;12.47;;;5.53;;
20861;SDS011;10591;52.532;13.348;2023-10-08T03:36:18;14.05;;;6.33;;
20861;SDS011;10591;52.532;13.348;2023-10-08T03:38:55;13.72;;;6.08;;
20861;SDS011;10591;52.532;13.348;2023-10-08T03:41:29;13.40;;;5.93;;
20861;SDS011;10591;52.532;13.348;2023-10-08T03:44:00;12.78;;;6.40;;
20861;SDS011;10591;52.532;13.348;2023-10-08T03:46:31;10.23;;;5.53;;
20861;SDS011;10591;52.532;13.348;2023-10-08T03:49:05;13.50;;;5.03;;
20861;SDS011;10591;52.532;13.348;2023-10-08T03:51:38;11.28;;;5.87;;
20861;SDS011;10591;52.532;13.348;2023-10-08T03:54:09;13.67;;;5.80;;
20861;SDS011;10591;52.532;13.348;2023-10-08T03:56:47;12.55;;;5.70;;
20861;SDS011;10591;52.532;13.348;2023-10-08T03:59:20;10.78;;;5.42;;
20861;SDS011;10591;52.532;13.348;2023-10-08T04:02:03;13.08;;;5.85;;
20861;SDS011;10591;52.532;13.348;2023-10-08T04:04:46;12.75;;;5.60;;
20861;SDS011;10591;52.532;13.348;2023-10-08T04:07:22;13.32;;;6.08;;
20861;SDS011;10591;52.532;13.348;2023-10-08T04:10:00;11.48;;;5.90;;
20861;SDS011;10591;52.532;13.348;2023-10-08T04:12:42;12.00;;;5.80;;
20861;SDS011;10591;52.532;13.348;2023-10-08T04:15:17;10.80;;;5.22;;
20861;SDS011;10591;52.532;13.348;2023-10-08T04:17:49;12.13;;;5.95;;
20861;SDS011;10591;52.532;13.348;2023-10-08T04:20:20;11.05;;;5.15;;
20861;SDS011;10591;52.532;13.348;2023-10-08T04:23:03;11.38;;;5.45;;
20861;SDS011;10591;52.532;13.348;2023-10-08T04:25:37;11.35;;;5.25;;
20861;SDS011;10591;52.532;13.348;2023-10-08T04:28:08;8.48;;;5.25;;
20861;SDS011;10591;52.532;13.348;2023-10-08T04:30:40;11.25;;;5.78;;
20861;SDS011;10591;52.532;13.348;2023-10-08T04:33:12;11.20;;;5.50;;
20861;SDS011;10591;52.532;13.348;2023-10-08T04:35:44;12.43;;;5.47;;
20861;SDS011;10591;52.532;13.348;2023-10-08T04:38:20;14.78;;;6.08;;
20861;SDS011;10591;52.532;13.348;2023-10-08T04:40:55;13.13;;;5.83;;
20861;SDS011;10591;52.532;13.348;2023-10-08T04:43:28;8.98;;;5.58;;
20861;SDS011;10591;52.532;13.348;2023-10-08T04:46:00;10.95;;;5.22;;
20861;SDS011;10591;52.532;13.348;2023-10-08T04:48:52;13.30;;;5.75;;
20861;SDS011;10591;52.532;13.348;2023-10-08T04:51:22;11.22;;;5.70;;
20861;SDS011;10591;52.532;13.348;2023-10-08T04:53:53;9.85;;;5.20;;
20861;SDS011;10591;52.532;13.348;2023-10-08T04:56:24;12.47;;;6.28;;
20861;SDS011;10591;52.532;13.348;2023-10-08T04:58:56;13.15;;;5.95;;
20861;SDS011;10591;52.532;13.348;2023-10-08T05:01:27;13.53;;;5.22;;
20861;SDS011;10591;52.532;13.348;2023-10-08T05:04:00;11.40;;;5.17;;
20861;SDS011;10591;52.532;13.348;2023-10-08T05:06:33;11.23;;;5.47;;
20861;SDS011;10591;52.532;13.348;2023-10-08T05:09:13;10.82;;;5.00;;
20861;SDS011;10591;52.532;13.348;2023-10-08T05:11:52;11.00;;;6.00;;
20861;SDS011;10591;52.532;13.348;2023-10-08T05:14:27;10.35;;;5.12;;
20861;SDS011;10591;52.532;13.348;2023-10-08T05:17:08;13.05;;;5.40;;
20861;SDS011;10591;52.532;13.348;2023-10-08T05:19:41;11.27;;;5.73;;
20861;SDS011;10591;52.532;13.348;2023-10-08T05:22:33;15.20;;;5.67;;
20861;SDS011;10591;52.532;13.348;2023-10-08T05:25:08;14.28;;;6.90;;
20861;SDS011;10591;52.532;13.348;2023-10-08T05:27:46;12.23;;;5.87;;
20861;SDS011;10591;52.532;13.348;2023-10-08T05:30:19;14.30;;;5.90;;
20861;SDS011;10591;52.532;13.348;2023-10-08T05:32:56;9.05;;;4.97;;
20861;SDS011;10591;52.532;13.348;2023-10-08T05:35:45;13.93;;;6.08;;
20861;SDS011;10591;52.532;13.348;2023-10-08T05:38:18;10.63;;;5.40;;
20861;SDS011;10591;52.532;13.348;2023-10-08T05:41:01;12.47;;;5.90;;
20861;SDS011;10591;52.532;13.348;2023-10-08T05:43:35;13.05;;;6.28;;
20861;SDS011;10591;52.532;13.348;2023-10-08T05:46:12;14.23;;;6.78;;
20861;SDS011;10591;52.532;13.348;2023-10-08T05:48:55;13.98;;;6.00;;
20861;SDS011;10591;52.532;13.348;2023-10-08T05:51:37;15.17;;;6.30;;
20861;SDS011;10591;52.532;13.348;2023-10-08T05:54:21;9.93;;;5.55;;
20861;SDS011;10591;52.532;13.348;2023-10-08T05:57:01;12.85;;;5.97;;
20861;SDS011;10591;52.532;13.348;2023-10-08T05:59:45;10.43;;;5.78;;
20861;SDS011;10591;52.532;13.348;2023-10-08T06:02:29;12.88;;;6.30;;
20861;SDS011;10591;52.532;13.348;2023-10-08T06:05:06;15.78;;;6.45;;
20861;SDS011;10591;52.532;13.348;2023-10-08T06:07:44;11.10;;;5.60;;
20861;SDS011;10591;52.532;13.348;2023-10-08T06:10:29;12.88;;;5.80;;
20861;SDS011;10591;52.532;13.348;2023-10-08T06:13:03;13.58;;;6.55;;
20861;SDS011;10591;52.532;13.348;2023-10-08T06:15:41;11.63;;;5.87;;
20861;SDS011;10591;52.532;13.348;2023-10-08T06:18:27;13.55;;;5.83;;
20861;SDS011;10591;52.532;13.348;2023-10-08T06:21:03;10.93;;;6.15;;
20861;SDS011;10591;52.532;13.348;2023-10-08T06:23:40;13.85;;;5.97;;
20861;SDS011;10591;52.532;13.348;2023-10-08T06:26:11;11.73;;;5.03;;
20861;SDS011;10591;52.532;13.348;2023-10-08T06:28:46;11.00;;;5.40;;
20861;SDS011;10591;52.532;13.348;2023-10-08T06:31:17;8.70;;;5.25;;
20861;SDS011;10591;52.532;13.348;2023-10-08T06:33:50;9.75;;;5.20;;
20861;SDS011;10591;52.532;13.348;2023-10-08T06:36:21;12.50;;;4.85;;
20861;SDS011;10591;52.532;13.348;2023-10-08T06:38:54;8.83;;;5.50;;
20861;SDS011;10591;52.532;13.348;2023-10-08T06:41:25;10.20;;;5.30;;
20861;SDS011;10591;52.532;13.348;2023-10-08T06:43:59;10.53;;;4.90;;
20861;SDS011;10591;52.532;13.348;2023-10-08T06:46:34;7.20;;;4.70;;
20861;SDS011;10591;52.532;13.348;2023-10-08T06:49:09;8.65;;;4.67;;
20861;SDS011;10591;52.532;13.348;2023-10-08T06:51:42;7.53;;;4.33;;
20861;SDS011;10591;52.532;13.348;2023-10-08T06:54:13;11.78;;;5.12;;
20861;SDS011;10591;52.532;13.348;2023-10-08T06:56:47;10.70;;;4.65;;
20861;SDS011;10591;52.532;13.348;2023-10-08T06:59:19;7.97;;;4.10;;
20861;SDS011;10591;52.532;13.348;2023-10-08T07:01:54;6.53;;;3.83;;
20861;SDS011;10591;52.532;13.348;2023-10-08T07:04:28;7.22;;;3.50;;
20861;SDS011;10591;52.532;13.348;2023-10-08T07:07:00;8.85;;;3.92;;
20861;SDS011;10591;52.532;13.348;2023-10-08T07:09:37;7.65;;;3.75;;
20861;SDS011;10591;52.532;13.348;2023-10-08T07:12:07;8.20;;;4.00;;
20861;SDS011;10591;52.532;13.348;2023-10-08T07:14:40;6.00;;;3.40;;
20861;SDS011;10591;52.532;13.348;2023-10-08T07:17:11;8.43;;;3.35;;
20861;SDS011;10591;52.532;13.348;2023-10-08T07:19:43;6.20;;;3.67;;
20861;SDS011;10591;52.532;13.348;2023-10-08T07:22:16;8.35;;;3.60;;
20861;SDS011;10591;52.532;13.348;2023-10-08T07:24:52;6.33;;;3.65;;
20861;SDS011;10591;52.532;13.348;2023-10-08T07:27:23;6.05;;;3.33;;
20861;SDS011;10591;52.532;13.348;2023-10-08T07:29:56;6.08;;;3.37;;
20861;SDS011;10591;52.532;13.348;2023-10-08T07:32:29;8.83;;;3.65;;
20861;SDS011;10591;52.532;13.348;2023-10-08T07:35:00;7.30;;;3.33;;
20861;SDS011;10591;52.532;13.348;2023-10-08T07:37:36;8.68;;;3.52;;
20861;SDS011;10591;52.532;13.348;2023-10-08T07:40:07;7.35;;;3.92;;
20861;SDS011;10591;52.532;13.348;2023-10-08T07:42:40;7.22;;;3.40;;
20861;SDS011;10591;52.532;13.348;2023-10-08T07:45:10;5.92;;;3.27;;
20861;SDS011;10591;52.532;13.348;2023-10-08T07:47:47;5.92;;;2.92;;
20861;SDS011;10591;52.532;13.348;2023-10-08T07:50:18;9.15;;;3.37;;
20861;SDS011;10591;52.532;13.348;2023-10-08T07:52:49;6.03;;;3.17;;
20861;SDS011;10591;52.532;13.348;2023-10-08T07:55:20;3.12;;;2.65;;
20861;SDS011;10591;52.532;13.348;2023-10-08T07:57:51;7.87;;;3.20;;
20861;SDS011;10591;52.532;13.348;2023-10-08T08:00:21;4.47;;;2.90;;
20861;SDS011;10591;52.532;13.348;2023-10-08T08:02:55;6.37;;;3.02;;
20861;SDS011;10591;52.532;13.348;2023-10-08T08:05:30;4.45;;;3.05;;
20861;SDS011;10591;52.532;13.348;2023-10-08T08:08:02;3.70;;;2.60;;
20861;SDS011;10591;52.532;13.348;2023-10-08T08:10:34;4.90;;;2.95;;
20861;SDS011;10591;52.532;13.348;2023-10-08T08:13:06;5.20;;;3.00;;
20861;SDS011;10591;52.532;13.348;2023-10-08T08:15:37;4.65;;;3.40;;
20861;SDS011;10591;52.532;13.348;2023-10-08T08:18:12;6.80;;;2.98;;
20861;SDS011;10591;52.532;13.348;2023-10-08T08:20:45;3.95;;;2.45;;
20861;SDS011;10591;52.532;13.348;2023-10-08T08:23:16;5.55;;;2.98;;
20861;SDS011;10591;52.532;13.348;2023-10-08T08:25:47;3.20;;;2.10;;
20861;SDS011;10591;52.532;13.348;2023-10-08T08:28:39;4.60;;;2.50;;
20861;SDS011;10591;52.532;13.348;2023-10-08T08:31:10;3.80;;;2.42;;
20861;SDS011;10591;52.532;13.348;2023-10-08T08:33:44;5.53;;;3.00;;
20861;SDS011;10591;52.532;13.348;2023-10-08T08:36:29;5.12;;;2.85;;
20861;SDS011;10591;52.532;13.348;2023-10-08T08:39:05;5.22;;;2.72;;
20861;SDS011;10591;52.532;13.348;2023-10-08T08:41:37;6.30;;;3.10;;
20861;SDS011;10591;52.532;13.348;2023-10-08T08:44:08;5.03;;;2.70;;
20861;SDS011;10591;52.532;13.348;2023-10-08T08:46:39;3.87;;;2.45;;
20861;SDS011;10591;52.532;13.348;2023-10-08T08:49:10;4.72;;;2.50;;
20861;SDS011;10591;52.532;13.348;2023-10-08T08:51:41;6.05;;;3.92;;
20861;SDS011;10591;52.532;13.348;2023-10-08T08:54:14;3.47;;;2.87;;
20861;SDS011;10591;52.532;13.348;2023-10-08T08:56:45;6.72;;;3.12;;
20861;SDS011;10591;52.532;13.348;2023-10-08T08:59:16;4.83;;;3.15;;
20861;SDS011;10591;52.532;13.348;2023-10-08T09:01:48;4.47;;;2.90;;
20861;SDS011;10591;52.532;13.348;2023-10-08T09:04:29;3.67;;;2.12;;
20861;SDS011;10591;52.532;13.348;2023-10-08T09:07:01;3.30;;;2.20;;
20861;SDS011;10591;52.532;13.348;2023-10-08T09:09:33;3.45;;;2.30;;
20861;SDS011;10591;52.532;13.348;2023-10-08T09:12:06;3.95;;;2.08;;
20861;SDS011;10591;52.532;13.348;2023-10-08T09:14:38;4.08;;;2.60;;
20861;SDS011;10591;52.532;13.348;2023-10-08T09:17:13;3.55;;;2.37;;
20861;SDS011;10591;52.532;13.348;2023-10-08T09:19:46;4.45;;;2.80;;
20861;SDS011;10591;52.532;13.348;2023-10-08T09:22:19;4.15;;;2.30;;
20861;SDS011;10591;52.532;13.348;2023-10-08T09:24:50;2.70;;;1.82;;
20861;SDS011;10591;52.532;13.348;2023-10-08T09:27:22;4.15;;;2.27;;
20861;SDS011;10591;52.532;13.348;2023-10-08T09:29:55;3.47;;;2.20;;
20861;SDS011;10591;52.532;13.348;2023-10-08T09:32:26;4.17;;;2.35;;
20861;SDS011;10591;52.532;13.348;2023-10-08T09:35:00;3.70;;;1.82;;
20861;SDS011;10591;52.532;13.348;2023-10-08T09:37:33;3.12;;;1.77;;
20861;SDS011;10591;52.532;13.348;2023-10-08T09:40:05;2.72;;;2.17;;
20861;SDS011;10591;52.532;13.348;2023-10-08T09:42:39;2.37;;;1.85;;
20861;SDS011;10591;52.532;13.348;2023-10-08T09:45:12;4.67;;;1.98;;
20861;SDS011;10591;52.532;13.348;2023-10-08T09:47:43;4.50;;;2.62;;
20861;SDS011;10591;52.532;13.348;2023-10-08T09:50:17;2.62;;;2.02;;
20861;SDS011;10591;52.532;13.348;2023-10-08T09:55:27;4.05;;;3.02;;
20861;SDS011;10591;52.532;13.348;2023-10-08T09:57:58;4.17;;;2.52;;
20861;SDS011;10591;52.532;13.348;2023-10-08T10:00:31;3.47;;;2.15;;
20861;SDS011;10591;52.532;13.348;2023-10-08T10:03:02;4.45;;;2.25;;
20861;SDS011;10591;52.532;13.348;2023-10-08T10:05:33;3.50;;;2.22;;
20861;SDS011;10591;52.532;13.348;2023-10-08T10:08:07;3.65;;;2.35;;
20861;SDS011;10591;52.532;13.348;2023-10-08T10:10:39;4.17;;;2.50;;
20861;SDS011;10591;52.532;13.348;2023-10-08T10:13:11;3.87;;;2.00;;
20861;SDS011;10591;52.532;13.348;2023-10-08T10:15:44;3.27;;;1.87;;
20861;SDS011;10591;52.532;13.348;2023-10-08T10:20:59;2.37;;;1.75;;
20861;SDS011;10591;52.532;13.348;2023-10-08T10:23:44;4.33;;;2.40;;
20861;SDS011;10591;52.532;13.348;2023-10-08T10:26:22;3.60;;;2.12;;
20861;SDS011;10591;52.532;13.348;2023-10-08T10:34:23;3.45;;;2.65;;
20861;SDS011;10591;52.532;13.348;2023-10-08T10:36:59;2.60;;;2.27;;
20861;SDS011;10591;52.532;13.348;2023-10-08T10:39:43;2.47;;;2.05;;
20861;SDS011;10591;52.532;13.348;2023-10-08T10:42:15;2.75;;;2.02;;
20861;SDS011;10591;52.532;13.348;2023-10-08T10:44:54;3.52;;;2.25;;
20861;SDS011;10591;52.532;13.348;2023-10-08T10:47:26;5.42;;;2.85;;
20861;SDS011;10591;52.532;13.348;2023-10-08T10:49:58;4.17;;;2.47;;
20861;SDS011;10591;52.532;13.348;2023-10-08T10:52:31;4.45;;;2.55;;
20861;SDS011;10591;52.532;13.348;2023-10-08T10:55:08;3.37;;;2.17;;
20861;SDS011;10591;52.532;13.348;2023-10-08T10:57:47;3.33;;;1.98;;
20861;SDS011;10591;52.532;13.348;2023-10-08T11:00:29;3.90;;;2.08;;
20861;SDS011;10591;52.532;13.348;2023-10-08T11:03:04;2.95;;;2.20;;
20861;SDS011;10591;52.532;13.348;2023-10-08T11:05:54;3.70;;;2.33;;
20861;SDS011;10591;52.532;13.348;2023-10-08T11:08:24;4.00;;;2.08;;
20861;SDS011;10591;52.532;13.348;2023-10-08T11:10:57;4.42;;;2.75;;
20861;SDS011;10591;52.532;13.348;2023-10-08T11:13:28;2.92;;;2.10;;
20861;SDS011;10591;52.532;13.348;2023-10-08T11:16:01;3.25;;;2.17;;
20861;SDS011;10591;52.532;13.348;2023-10-08T11:18:42;3.47;;;2.05;;
20861;SDS011;10591;52.532;13.348;2023-10-08T11:21:08;3.12;;;2.30;;
20861;SDS011;10591;52.532;13.348;2023-10-08T11:23:47;3.20;;;2.15;;
20861;SDS011;10591;52.532;13.348;2023-10-08T11:26:26;2.72;;;1.95;;
20861;SDS011;10591;52.532;13.348;2023-10-08T11:29:07;3.67;;;2.50;;
20861;SDS011;10591;52.532;13.348;2023-10-08T11:31:38;3.10;;;2.05;;
20861;SDS011;10591;52.532;13.348;2023-10-08T11:34:13;3.50;;;1.60;;
20861;SDS011;10591;52.532;13.348;2023-10-08T11:36:44;2.92;;;2.15;;
20861;SDS011;10591;52.532;13.348;2023-10-08T11:39:18;2.70;;;2.27;;
20861;SDS011;10591;52.532;13.348;2023-10-08T11:41:56;3.65;;;2.15;;
20861;SDS011;10591;52.532;13.348;2023-10-08T11:44:35;4.87;;;2.70;;
20861;SDS011;10591;52.532;13.348;2023-10-08T11:47:09;5.08;;;2.95;;
20861;SDS011;10591;52.532;13.348;2023-10-08T11:49:43;4.80;;;2.75;;
20861;SDS011;10591;52.532;13.348;2023-10-08T11:52:18;4.58;;;2.45;;
20861;SDS011;10591;52.532;13.348;2023-10-08T11:54:52;3.65;;;2.42;;
20861;SDS011;10591;52.532;13.348;2023-10-08T11:57:23;4.42;;;2.67;;
20861;SDS011;10591;52.532;13.348;2023-10-08T11:59:54;4.92;;;3.15;;
20861;SDS011;10591;52.532;13.348;2023-10-08T12:02:27;2.22;;;1.62;;
20861;SDS011;10591;52.532;13.348;2023-10-08T12:04:58;4.15;;;2.58;;
20861;SDS011;10591;52.532;13.348;2023-10-08T12:07:32;2.70;;;1.72;;
20861;SDS011;10591;52.532;13.348;2023-10-08T12:10:06;3.85;;;2.30;;
20861;SDS011;10591;52.532;13.348;2023-10-08T12:12:40;2.70;;;2.10;;
20861;SDS011;10591;52.532;13.348;2023-10-08T12:15:11;2.83;;;2.12;;
20861;SDS011;10591;52.532;13.348;2023-10-08T12:17:43;2.98;;;1.92;;
20861;SDS011;10591;52.532;13.348;2023-10-08T12:20:15;3.52;;;2.50;;
20861;SDS011;10591;52.532;13.348;2023-10-08T12:22:52;3.58;;;2.58;;
20861;SDS011;10591;52.532;13.348;2023-10-08T12:25:25;3.65;;;2.60;;
20861;SDS011;10591;52.532;13.348;2023-10-08T12:27:56;2.87;;;2.22;;
20861;SDS011;10591;52.532;13.348;2023-10-08T12:30:26;2.55;;;1.85;;
20861;SDS011;10591;52.532;13.348;2023-10-08T12:32:59;3.85;;;2.10;;
20861;SDS011;10591;52.532;13.348;2023-10-08T12:35:30;2.67;;;1.95;;
20861;SDS011;10591;52.532;13.348;2023-10-08T12:38:08;4.92;;;2.87;;
20861;SDS011;10591;52.532;13.348;2023-10-08T12:40:41;4.62;;;2.12;;
20861;SDS011;10591;52.532;13.348;2023-10-08T12:43:15;3.75;;;2.90;;
20861;SDS011;10591;52.532;13.348;2023-10-08T12:45:48;2.90;;;2.37;;
20861;SDS011;10591;52.532;13.348;2023-10-08T12:48:25;3.83;;;2.20;;
20861;SDS011;10591;52.532;13.348;2023-10-08T12:50:57;2.12;;;1.70;;
20861;SDS011;10591;52.532;13.348;2023-10-08T12:53:29;3.22;;;2.30;;
20861;SDS011;10591;52.532;13.348;2023-10-08T12:56:04;3.77;;;2.30;;
20861;SDS011;10591;52.532;13.348;2023-10-08T12:58:36;3.22;;;2.22;;
20861;SDS011;10591;52.532;13.348;2023-10-08T13:01:18;3.90;;;2.45;;
20861;SDS011;10591;52.532;13.348;2023-10-08T13:03:50;3.92;;;2.75;;
20861;SDS011;10591;52.532;13.348;2023-10-08T13:06:23;2.65;;;1.90;;
20861;SDS011;10591;52.532;13.348;2023-10-08T13:09:00;2.92;;;2.20;;
20861;SDS011;10591;52.532;13.348;2023-10-08T13:11:32;3.15;;;2.70;;
20861;SDS011;10591;52.532;13.348;2023-10-08T13:14:03;3.70;;;2.40;;
20861;SDS011;10591;52.532;13.348;2023-10-08T13:16:34;3.95;;;2.70;;
20861;SDS011;10591;52.532;13.348;2023-10-08T13:19:06;2.90;;;2.17;;
20861;SDS011;10591;52.532;13.348;2023-10-08T13:21:38;4.85;;;2.77;;
20861;SDS011;10591;52.532;13.348;2023-10-08T13:24:08;3.60;;;2.70;;
20861;SDS011;10591;52.532;13.348;2023-10-08T13:26:39;4.47;;;2.80;;
20861;SDS011;10591;52.532;13.348;2023-10-08T13:29:11;3.00;;;2.27;;
20861;SDS011;10591;52.532;13.348;2023-10-08T13:31:43;5.05;;;2.85;;
20861;SDS011;10591;52.532;13.348;2023-10-08T13:34:15;3.62;;;2.33;;
20861;SDS011;10591;52.532;13.348;2023-10-08T13:36:46;3.52;;;2.60;;
20861;SDS011;10591;52.532;13.348;2023-10-08T13:39:19;2.92;;;2.42;;
20861;SDS011;10591;52.532;13.348;2023-10-08T13:41:50;3.52;;;2.70;;
20861;SDS011;10591;52.532;13.348;2023-10-08T13:44:22;3.02;;;2.33;;
20861;SDS011;10591;52.532;13.348;2023-10-08T13:46:55;3.55;;;2.20;;
20861;SDS011;10591;52.532;13.348;2023-10-08T13:49:29;3.00;;;2.10;;
20861;SDS011;10591;52.532;13.348;2023-10-08T13:52:00;2.70;;;2.35;;
20861;SDS011;10591;52.532;13.348;2023-10-08T13:54:30;3.72;;;2.55;;
20861;SDS011;10591;52.532;13.348;2023-10-08T13:57:03;4.60;;;3.17;;
20861;SDS011;10591;52.532;13.348;2023-10-08T13:59:35;3.83;;;2.90;;
20861;SDS011;10591;52.532;13.348;2023-10-08T14:02:07;3.72;;;2.52;;
20861;SDS011;10591;52.532;13.348;2023-10-08T14:04:44;3.72;;;2.70;;
20861;SDS011;10591;52.532;13.348;2023-10-08T14:07:14;6.50;;;4.70;;
20861;SDS011;10591;52.532;13.348;2023-10-08T14:09:46;12.90;;;7.47;;
20861;SDS011;10591;52.532;13.348;2023-10-08T14:12:16;2.98;;;2.27;;
20861;SDS011;10591;52.532;13.348;2023-10-08T14:14:47;3.83;;;2.47;;
20861;SDS011;10591;52.532;13.348;2023-10-08T14:17:18;4.45;;;3.22;;
20861;SDS011;10591;52.532;13.348;2023-10-08T14:19:53;2.90;;;2.30;;
20861;SDS011;10591;52.532;13.348;2023-10-08T14:22:25;6.50;;;3.72;;
20861;SDS011;10591;52.532;13.348;2023-10-08T14:24:56;5.50;;;3.35;;
20861;SDS011;10591;52.532;13.348;2023-10-08T14:27:30;4.08;;;2.80;;
20861;SDS011;10591;52.532;13.348;2023-10-08T14:30:01;2.77;;;2.25;;
20861;SDS011;10591;52.532;13.348;2023-10-08T14:32:35;3.20;;;2.42;;
20861;SDS011;10591;52.532;13.348;2023-10-08T14:35:06;3.85;;;2.60;;
20861;SDS011;10591;52.532;13.348;2023-10-08T14:37:57;2.45;;;1.95;;
20861;SDS011;10591;52.532;13.348;2023-10-08T14:40:46;4.45;;;2.50;;
20861;SDS011;10591;52.532;13.348;2023-10-08T14:43:35;4.17;;;2.40;;
20861;SDS011;10591;52.532;13.348;2023-10-08T14:46:07;5.33;;;3.00;;
20861;SDS011;10591;52.532;13.348;2023-10-08T14:48:38;4.25;;;2.65;;
20861;SDS011;10591;52.532;13.348;2023-10-08T14:51:11;2.52;;;2.00;;
20861;SDS011;10591;52.532;13.348;2023-10-08T14:53:43;3.05;;;1.92;;
20861;SDS011;10591;52.532;13.348;2023-10-08T14:56:16;4.62;;;2.52;;
20861;SDS011;10591;52.532;13.348;2023-10-08T14:58:50;3.87;;;3.08;;
20861;SDS011;10591;52.532;13.348;2023-10-08T15:01:20;2.20;;;1.85;;
20861;SDS011;10591;52.532;13.348;2023-10-08T15:03:53;3.95;;;2.67;;
20861;SDS011;10591;52.532;13.348;2023-10-08T15:06:24;4.78;;;2.20;;
20861;SDS011;10591;52.532;13.348;2023-10-08T15:08:56;4.58;;;2.47;;
20861;SDS011;10591;52.532;13.348;2023-10-08T15:11:27;5.35;;;2.62;;
20861;SDS011;10591;52.532;13.348;2023-10-08T15:13:59;4.12;;;2.67;;
20861;SDS011;10591;52.532;13.348;2023-10-08T15:16:31;2.80;;;2.10;;
20861;SDS011;10591;52.532;13.348;2023-10-08T15:19:02;4.30;;;2.40;;
20861;SDS011;10591;52.532;13.348;2023-10-08T15:21:33;4.17;;;2.80;;